King City, CA (93930)

12:30 PM PDT on September 04, 2015 (GMT -0700)
King City Ca. | | Change Station
CLOSE
Current Station
Personal Weather Station
Location: King City, CA
Elevation: 331 ft
Nearby Weather Stations

Elev 331 ft 36.21 °N, 121.13 °W | Updated 15 seconds ago

Clear
Clear
79.5 °F
Feels Like 79 °F
N
0.0
Wind Variable Wind from SSE
Gusts 0.0 mph

Today
High -- | Low -- °F
--% Chance of Precip.
Yesterday
High -- | Low -- °F
Precip. -- in
6:38 AM 7:28 PM
Waning Gibbous, 57% visible
Pressure 29.96 in
Visibility 10.0 miles
Clouds Clear
Heat Index 79 °F
Dew Point 46 °F
Humidity 30%
Rainfall 0.00 in
Snow Depth Not available.
UV 5.0 out of 12
Pollen 8.80 out of 12
Air Quality Not available.
Flu Activity Not available.
METAR KSNS 041853Z 25013G16KT 10SM CLR 19/09 A2993 RMK AO2 SLP144 T01940089
Pressure 29.96 in
Visibility 10.0 miles
Clouds Clear
Heat Index 79 °F
Dew Point 46 °F
Humidity 30%
Rainfall 0.00 in
Snow Depth Not available.
UV 5.0 out of 12
Pollen 8.80 out of 12
Air Quality Not available.
Flu Activity Not available.
METAR KSNS 041853Z 25013G16KT 10SM CLR 19/09 A2993 RMK AO2 SLP144 T01940089

10-Day Weather Forecast

×

Almanac

Astronomy

Sep. 04, 2015 Rise Set
Actual Time
Civil Twilight
Nautical Twilight
Astronomical Twilight
Moon
Length of Visible Light
Length of Day
Tomorrow will be .
, % of the Moon is Illuminated

Today's Extremes

State Highs State Lows

Community

WunderPhotos

Upload Photos

1,852,273 photos uploaded!

WunderBlogs® & News

Nearby

Air Quality

  Air Quality AQ Index Pollutant
Not available.

Snow Depth

Station Depth Elevation

Earthquake Activity

City Distance Mag. Time & Date
Minimum magnitude displayed is 2.5.

Coastal Water Temperatures

Place Temperature

Stations

Nearby Weather Stations

Station Location Temp. Windchill Dew Point Humidity Wind Precip. Elev Updated Type